sensor_id;sensor_type;location;lat;lon;timestamp;P1;durP1;ratioP1;P2;durP2;ratioP2
20832;SDS011;56075;51.264;7.150;2022-12-11T00:00:52;65.83;;;16.87;;
20832;SDS011;56075;51.264;7.150;2022-12-11T00:03:24;67.97;;;16.23;;
20832;SDS011;56075;51.264;7.150;2022-12-11T00:05:55;57.47;;;14.40;;
20832;SDS011;56075;51.264;7.150;2022-12-11T00:08:27;58.23;;;13.93;;
20832;SDS011;56075;51.264;7.150;2022-12-11T00:10:58;55.43;;;14.43;;
20832;SDS011;56075;51.264;7.150;2022-12-11T00:13:29;59.57;;;15.27;;
20832;SDS011;56075;51.264;7.150;2022-12-11T00:16:01;60.60;;;13.77;;
20832;SDS011;56075;51.264;7.150;2022-12-11T00:18:32;57.07;;;13.00;;
20832;SDS011;56075;51.264;7.150;2022-12-11T00:21:04;61.63;;;13.97;;
20832;SDS011;56075;51.264;7.150;2022-12-11T00:23:36;44.03;;;11.97;;
20832;SDS011;56075;51.264;7.150;2022-12-11T00:26:08;41.47;;;11.10;;
20832;SDS011;56075;51.264;7.150;2022-12-11T00:28:40;60.10;;;12.63;;
20832;SDS011;56075;51.264;7.150;2022-12-11T00:31:15;54.70;;;12.30;;
20832;SDS011;56075;51.264;7.150;2022-12-11T00:33:46;55.33;;;13.57;;
20832;SDS011;56075;51.264;7.150;2022-12-11T00:36:22;65.07;;;14.63;;
20832;SDS011;56075;51.264;7.150;2022-12-11T00:38:54;66.93;;;13.93;;
20832;SDS011;56075;51.264;7.150;2022-12-11T00:41:25;64.30;;;14.33;;
20832;SDS011;56075;51.264;7.150;2022-12-11T00:43:57;90.00;;;18.97;;
20832;SDS011;56075;51.264;7.150;2022-12-11T00:46:29;66.90;;;14.17;;
20832;SDS011;56075;51.264;7.150;2022-12-11T00:49:00;73.97;;;14.80;;
20832;SDS011;56075;51.264;7.150;2022-12-11T00:51:32;75.37;;;16.20;;
20832;SDS011;56075;51.264;7.150;2022-12-11T00:54:03;76.20;;;16.80;;
20832;SDS011;56075;51.264;7.150;2022-12-11T00:56:37;83.13;;;16.63;;
20832;SDS011;56075;51.264;7.150;2022-12-11T00:59:09;96.93;;;16.53;;
20832;SDS011;56075;51.264;7.150;2022-12-11T01:01:40;87.87;;;17.30;;
20832;SDS011;56075;51.264;7.150;2022-12-11T01:04:11;95.63;;;17.33;;
20832;SDS011;56075;51.264;7.150;2022-12-11T01:06:43;114.80;;;16.90;;
20832;SDS011;56075;51.264;7.150;2022-12-11T01:09:14;87.83;;;16.07;;
20832;SDS011;56075;51.264;7.150;2022-12-11T01:12:04;111.43;;;19.97;;
20832;SDS011;56075;51.264;7.150;2022-12-11T01:14:36;124.97;;;16.87;;
20832;SDS011;56075;51.264;7.150;2022-12-11T01:17:07;102.80;;;18.57;;
20832;SDS011;56075;51.264;7.150;2022-12-11T01:19:38;103.13;;;17.67;;
20832;SDS011;56075;51.264;7.150;2022-12-11T01:22:10;121.93;;;19.30;;
20832;SDS011;56075;51.264;7.150;2022-12-11T01:24:41;108.07;;;18.10;;
20832;SDS011;56075;51.264;7.150;2022-12-11T01:27:13;142.37;;;18.63;;
20832;SDS011;56075;51.264;7.150;2022-12-11T01:29:44;172.73;;;19.53;;
20832;SDS011;56075;51.264;7.150;2022-12-11T01:32:16;171.80;;;22.23;;
20832;SDS011;56075;51.264;7.150;2022-12-11T01:34:47;230.73;;;23.30;;
20832;SDS011;56075;51.264;7.150;2022-12-11T01:37:19;182.73;;;21.17;;
20832;SDS011;56075;51.264;7.150;2022-12-11T01:39:51;223.33;;;22.93;;
20832;SDS011;56075;51.264;7.150;2022-12-11T01:42:22;271.77;;;22.47;;
20832;SDS011;56075;51.264;7.150;2022-12-11T01:45:12;188.47;;;21.60;;
20832;SDS011;56075;51.264;7.150;2022-12-11T01:47:47;174.03;;;21.27;;
20832;SDS011;56075;51.264;7.150;2022-12-11T01:50:19;238.83;;;22.27;;
20832;SDS011;56075;51.264;7.150;2022-12-11T01:52:50;213.80;;;22.97;;
20832;SDS011;56075;51.264;7.150;2022-12-11T01:55:22;248.33;;;24.67;;
20832;SDS011;56075;51.264;7.150;2022-12-11T01:57:54;175.47;;;22.17;;
20832;SDS011;56075;51.264;7.150;2022-12-11T02:00:25;162.83;;;20.33;;
20832;SDS011;56075;51.264;7.150;2022-12-11T02:02:57;166.17;;;21.43;;
20832;SDS011;56075;51.264;7.150;2022-12-11T02:05:28;183.10;;;23.37;;
20832;SDS011;56075;51.264;7.150;2022-12-11T02:08:00;183.83;;;22.20;;
20832;SDS011;56075;51.264;7.150;2022-12-11T02:10:42;164.20;;;21.43;;
20832;SDS011;56075;51.264;7.150;2022-12-11T02:13:17;167.40;;;20.13;;
20832;SDS011;56075;51.264;7.150;2022-12-11T02:21:05;168.80;;;20.70;;
20832;SDS011;56075;51.264;7.150;2022-12-11T02:23:43;114.70;;;15.67;;
20832;SDS011;56075;51.264;7.150;2022-12-11T02:26:23;133.57;;;19.83;;
20832;SDS011;56075;51.264;7.150;2022-12-11T02:32:07;146.87;;;19.53;;
20832;SDS011;56075;51.264;7.150;2022-12-11T02:34:45;129.93;;;18.57;;
20832;SDS011;56075;51.264;7.150;2022-12-11T02:37:18;117.13;;;17.73;;
20832;SDS011;56075;51.264;7.150;2022-12-11T02:39:50;143.40;;;20.70;;
20832;SDS011;56075;51.264;7.150;2022-12-11T02:42:26;121.63;;;18.13;;
20832;SDS011;56075;51.264;7.150;2022-12-11T02:44:59;142.23;;;18.73;;
20832;SDS011;56075;51.264;7.150;2022-12-11T02:47:31;133.13;;;18.50;;
20832;SDS011;56075;51.264;7.150;2022-12-11T02:50:05;136.80;;;19.90;;
20832;SDS011;56075;51.264;7.150;2022-12-11T02:52:39;115.53;;;17.40;;
20832;SDS011;56075;51.264;7.150;2022-12-11T02:55:12;133.83;;;19.17;;
20832;SDS011;56075;51.264;7.150;2022-12-11T02:57:50;117.30;;;19.27;;
20832;SDS011;56075;51.264;7.150;2022-12-11T03:00:22;135.83;;;21.47;;
20832;SDS011;56075;51.264;7.150;2022-12-11T03:02:53;114.17;;;18.33;;
20832;SDS011;56075;51.264;7.150;2022-12-11T03:05:25;130.00;;;19.40;;
20832;SDS011;56075;51.264;7.150;2022-12-11T03:07:57;120.47;;;18.63;;
20832;SDS011;56075;51.264;7.150;2022-12-11T03:10:28;110.30;;;17.70;;
20832;SDS011;56075;51.264;7.150;2022-12-11T03:13:00;104.50;;;16.73;;
20832;SDS011;56075;51.264;7.150;2022-12-11T03:15:55;118.97;;;18.20;;
20832;SDS011;56075;51.264;7.150;2022-12-11T03:18:38;133.13;;;20.33;;
20832;SDS011;56075;51.264;7.150;2022-12-11T03:21:15;116.33;;;17.60;;
20832;SDS011;56075;51.264;7.150;2022-12-11T03:23:50;102.53;;;17.50;;
20832;SDS011;56075;51.264;7.150;2022-12-11T03:26:25;118.90;;;19.30;;
20832;SDS011;56075;51.264;7.150;2022-12-11T03:29:01;94.90;;;16.80;;
20832;SDS011;56075;51.264;7.150;2022-12-11T03:31:44;123.67;;;19.03;;
20832;SDS011;56075;51.264;7.150;2022-12-11T03:34:27;106.43;;;18.33;;
20832;SDS011;56075;51.264;7.150;2022-12-11T03:37:00;104.27;;;18.17;;
20832;SDS011;56075;51.264;7.150;2022-12-11T03:39:35;85.80;;;15.47;;
20832;SDS011;56075;51.264;7.150;2022-12-11T03:42:09;89.77;;;16.57;;
20832;SDS011;56075;51.264;7.150;2022-12-11T03:44:42;72.83;;;15.17;;
20832;SDS011;56075;51.264;7.150;2022-12-11T03:47:18;68.03;;;15.40;;
20832;SDS011;56075;51.264;7.150;2022-12-11T03:49:50;81.03;;;15.73;;
20832;SDS011;56075;51.264;7.150;2022-12-11T03:52:23;81.90;;;15.33;;
20832;SDS011;56075;51.264;7.150;2022-12-11T03:54:57;74.93;;;16.80;;
20832;SDS011;56075;51.264;7.150;2022-12-11T03:57:31;85.50;;;17.70;;
20832;SDS011;56075;51.264;7.150;2022-12-11T04:00:06;88.13;;;16.47;;
20832;SDS011;56075;51.264;7.150;2022-12-11T04:02:43;88.83;;;16.77;;
20832;SDS011;56075;51.264;7.150;2022-12-11T04:05:14;86.73;;;16.87;;
20832;SDS011;56075;51.264;7.150;2022-12-11T04:07:46;66.70;;;14.47;;
20832;SDS011;56075;51.264;7.150;2022-12-11T04:10:17;82.17;;;16.40;;
20832;SDS011;56075;51.264;7.150;2022-12-11T04:12:49;68.07;;;15.97;;
20832;SDS011;56075;51.264;7.150;2022-12-11T04:15:20;70.00;;;15.63;;
20832;SDS011;56075;51.264;7.150;2022-12-11T04:17:52;67.50;;;13.73;;
20832;SDS011;56075;51.264;7.150;2022-12-11T04:20:42;60.03;;;14.73;;
20832;SDS011;56075;51.264;7.150;2022-12-11T04:23:32;61.70;;;14.40;;
20832;SDS011;56075;51.264;7.150;2022-12-11T04:26:22;62.60;;;14.53;;
20832;SDS011;56075;51.264;7.150;2022-12-11T04:28:54;61.93;;;13.90;;
20832;SDS011;56075;51.264;7.150;2022-12-11T04:31:25;62.63;;;14.53;;
20832;SDS011;56075;51.264;7.150;2022-12-11T04:33:57;68.93;;;15.60;;
20832;SDS011;56075;51.264;7.150;2022-12-11T04:36:29;64.27;;;14.67;;
20832;SDS011;56075;51.264;7.150;2022-12-11T04:39:00;65.00;;;15.47;;
20832;SDS011;56075;51.264;7.150;2022-12-11T04:41:32;64.43;;;14.93;;
20832;SDS011;56075;51.264;7.150;2022-12-11T04:44:04;54.27;;;13.87;;
20832;SDS011;56075;51.264;7.150;2022-12-11T04:46:35;52.73;;;11.83;;
20832;SDS011;56075;51.264;7.150;2022-12-11T04:49:06;55.43;;;12.60;;
20832;SDS011;56075;51.264;7.150;2022-12-11T04:51:39;51.70;;;12.20;;
20832;SDS011;56075;51.264;7.150;2022-12-11T04:54:10;45.77;;;10.80;;
20832;SDS011;56075;51.264;7.150;2022-12-11T04:56:41;41.97;;;9.67;;
20832;SDS011;56075;51.264;7.150;2022-12-11T04:59:12;40.93;;;10.67;;
20832;SDS011;56075;51.264;7.150;2022-12-11T05:01:44;47.80;;;11.10;;
20832;SDS011;56075;51.264;7.150;2022-12-11T05:04:15;52.93;;;11.63;;
20832;SDS011;56075;51.264;7.150;2022-12-11T05:06:47;42.97;;;11.73;;
20832;SDS011;56075;51.264;7.150;2022-12-11T05:09:19;57.63;;;12.77;;
20832;SDS011;56075;51.264;7.150;2022-12-11T05:11:50;51.83;;;13.03;;
20832;SDS011;56075;51.264;7.150;2022-12-11T05:14:22;54.50;;;13.37;;
20832;SDS011;56075;51.264;7.150;2022-12-11T05:16:53;48.80;;;12.83;;
20832;SDS011;56075;51.264;7.150;2022-12-11T05:19:25;57.40;;;13.73;;
20832;SDS011;56075;51.264;7.150;2022-12-11T05:21:56;52.10;;;12.47;;
20832;SDS011;56075;51.264;7.150;2022-12-11T05:24:28;52.67;;;12.77;;
20832;SDS011;56075;51.264;7.150;2022-12-11T05:26:59;50.97;;;12.03;;
20832;SDS011;56075;51.264;7.150;2022-12-11T05:29:31;56.27;;;13.27;;
20832;SDS011;56075;51.264;7.150;2022-12-11T05:32:02;52.47;;;12.50;;
20832;SDS011;56075;51.264;7.150;2022-12-11T05:34:34;62.53;;;13.43;;
20832;SDS011;56075;51.264;7.150;2022-12-11T05:37:05;61.90;;;13.73;;
20832;SDS011;56075;51.264;7.150;2022-12-11T05:39:37;60.50;;;12.87;;
20832;SDS011;56075;51.264;7.150;2022-12-11T05:42:09;59.67;;;13.37;;
20832;SDS011;56075;51.264;7.150;2022-12-11T05:44:40;52.83;;;12.57;;
20832;SDS011;56075;51.264;7.150;2022-12-11T05:47:11;50.57;;;12.33;;
20832;SDS011;56075;51.264;7.150;2022-12-11T05:49:42;57.60;;;13.53;;
20832;SDS011;56075;51.264;7.150;2022-12-11T05:52:14;56.23;;;13.70;;
20832;SDS011;56075;51.264;7.150;2022-12-11T05:54:47;63.27;;;13.90;;
20832;SDS011;56075;51.264;7.150;2022-12-11T05:57:19;58.33;;;13.67;;
20832;SDS011;56075;51.264;7.150;2022-12-11T05:59:50;55.63;;;14.17;;
20832;SDS011;56075;51.264;7.150;2022-12-11T06:02:21;50.47;;;12.63;;
20832;SDS011;56075;51.264;7.150;2022-12-11T06:04:53;52.67;;;13.80;;
20832;SDS011;56075;51.264;7.150;2022-12-11T06:07:24;51.53;;;13.10;;
20832;SDS011;56075;51.264;7.150;2022-12-11T06:09:55;61.60;;;14.20;;
20832;SDS011;56075;51.264;7.150;2022-12-11T06:12:26;59.97;;;14.17;;
20832;SDS011;56075;51.264;7.150;2022-12-11T06:14:59;53.77;;;12.63;;
20832;SDS011;56075;51.264;7.150;2022-12-11T06:17:30;48.47;;;10.87;;
20832;SDS011;56075;51.264;7.150;2022-12-11T06:20:01;48.53;;;11.37;;
20832;SDS011;56075;51.264;7.150;2022-12-11T06:22:33;47.90;;;11.77;;
20832;SDS011;56075;51.264;7.150;2022-12-11T06:25:04;35.73;;;9.77;;
20832;SDS011;56075;51.264;7.150;2022-12-11T06:27:36;44.53;;;12.03;;
20832;SDS011;56075;51.264;7.150;2022-12-11T06:30:07;48.57;;;12.40;;
20832;SDS011;56075;51.264;7.150;2022-12-11T06:32:39;52.43;;;13.10;;
20832;SDS011;56075;51.264;7.150;2022-12-11T06:35:11;56.03;;;14.00;;
20832;SDS011;56075;51.264;7.150;2022-12-11T06:37:43;53.80;;;15.60;;
20832;SDS011;56075;51.264;7.150;2022-12-11T06:40:14;49.17;;;13.00;;
20832;SDS011;56075;51.264;7.150;2022-12-11T06:42:45;53.73;;;14.23;;
20832;SDS011;56075;51.264;7.150;2022-12-11T06:45:17;50.00;;;13.57;;
20832;SDS011;56075;51.264;7.150;2022-12-11T06:47:48;51.57;;;12.60;;
20832;SDS011;56075;51.264;7.150;2022-12-11T06:50:20;53.17;;;14.10;;
20832;SDS011;56075;51.264;7.150;2022-12-11T06:52:51;58.40;;;14.60;;
20832;SDS011;56075;51.264;7.150;2022-12-11T06:55:23;51.60;;;12.47;;
20832;SDS011;56075;51.264;7.150;2022-12-11T06:57:54;51.97;;;12.90;;
20832;SDS011;56075;51.264;7.150;2022-12-11T07:00:25;44.53;;;11.90;;
20832;SDS011;56075;51.264;7.150;2022-12-11T07:02:57;48.67;;;12.53;;
20832;SDS011;56075;51.264;7.150;2022-12-11T07:05:29;60.53;;;13.80;;
20832;SDS011;56075;51.264;7.150;2022-12-11T07:08:00;49.30;;;13.67;;
20832;SDS011;56075;51.264;7.150;2022-12-11T07:10:32;50.97;;;13.47;;
20832;SDS011;56075;51.264;7.150;2022-12-11T07:13:03;51.13;;;13.67;;
20832;SDS011;56075;51.264;7.150;2022-12-11T07:15:35;56.73;;;13.63;;
20832;SDS011;56075;51.264;7.150;2022-12-11T07:18:06;48.90;;;13.93;;
20832;SDS011;56075;51.264;7.150;2022-12-11T07:20:38;60.97;;;15.00;;
20832;SDS011;56075;51.264;7.150;2022-12-11T07:23:09;51.63;;;14.13;;
20832;SDS011;56075;51.264;7.150;2022-12-11T07:25:41;60.17;;;15.20;;
20832;SDS011;56075;51.264;7.150;2022-12-11T07:28:12;61.40;;;14.83;;
20832;SDS011;56075;51.264;7.150;2022-12-11T07:30:44;57.27;;;14.90;;
20832;SDS011;56075;51.264;7.150;2022-12-11T07:33:16;58.40;;;14.97;;
20832;SDS011;56075;51.264;7.150;2022-12-11T07:35:47;56.03;;;14.20;;
20832;SDS011;56075;51.264;7.150;2022-12-11T07:38:19;55.47;;;14.33;;
20832;SDS011;56075;51.264;7.150;2022-12-11T07:40:50;49.17;;;13.47;;
20832;SDS011;56075;51.264;7.150;2022-12-11T07:43:22;47.10;;;13.97;;
20832;SDS011;56075;51.264;7.150;2022-12-11T07:45:53;52.90;;;13.40;;
20832;SDS011;56075;51.264;7.150;2022-12-11T07:48:25;57.33;;;14.97;;
20832;SDS011;56075;51.264;7.150;2022-12-11T07:51:06;60.07;;;15.63;;
20832;SDS011;56075;51.264;7.150;2022-12-11T07:53:37;54.70;;;13.40;;
20832;SDS011;56075;51.264;7.150;2022-12-11T07:56:09;53.40;;;14.30;;
20832;SDS011;56075;51.264;7.150;2022-12-11T07:58:40;54.47;;;13.97;;
20832;SDS011;56075;51.264;7.150;2022-12-11T08:01:24;53.30;;;13.27;;
20832;SDS011;56075;51.264;7.150;2022-12-11T08:03:57;60.27;;;14.07;;
20832;SDS011;56075;51.264;7.150;2022-12-11T08:06:29;49.70;;;12.63;;
20832;SDS011;56075;51.264;7.150;2022-12-11T08:09:01;58.40;;;15.07;;
20832;SDS011;56075;51.264;7.150;2022-12-11T08:11:33;48.10;;;13.47;;
20832;SDS011;56075;51.264;7.150;2022-12-11T08:14:05;54.00;;;13.63;;
20832;SDS011;56075;51.264;7.150;2022-12-11T08:16:38;55.77;;;13.80;;
20832;SDS011;56075;51.264;7.150;2022-12-11T08:19:12;51.10;;;12.83;;
20832;SDS011;56075;51.264;7.150;2022-12-11T08:21:50;50.63;;;13.83;;
20832;SDS011;56075;51.264;7.150;2022-12-11T08:24:22;53.33;;;13.90;;
20832;SDS011;56075;51.264;7.150;2022-12-11T08:26:54;53.47;;;14.57;;
20832;SDS011;56075;51.264;7.150;2022-12-11T08:29:25;49.33;;;13.27;;
20832;SDS011;56075;51.264;7.150;2022-12-11T08:31:57;50.80;;;13.27;;
20832;SDS011;56075;51.264;7.150;2022-12-11T08:34:28;54.83;;;15.60;;
20832;SDS011;56075;51.264;7.150;2022-12-11T08:37:00;56.57;;;14.70;;
20832;SDS011;56075;51.264;7.150;2022-12-11T08:39:31;57.07;;;15.00;;
20832;SDS011;56075;51.264;7.150;2022-12-11T08:42:03;58.47;;;13.60;;
20832;SDS011;56075;51.264;7.150;2022-12-11T08:44:34;41.77;;;10.83;;
20832;SDS011;56075;51.264;7.150;2022-12-11T08:47:06;58.47;;;14.73;;
20832;SDS011;56075;51.264;7.150;2022-12-11T08:49:39;51.50;;;13.00;;
20832;SDS011;56075;51.264;7.150;2022-12-11T08:52:11;58.13;;;14.77;;
20832;SDS011;56075;51.264;7.150;2022-12-11T08:54:42;54.53;;;12.77;;
20832;SDS011;56075;51.264;7.150;2022-12-11T08:57:13;59.87;;;14.37;;
20832;SDS011;56075;51.264;7.150;2022-12-11T08:59:45;54.50;;;15.03;;
20832;SDS011;56075;51.264;7.150;2022-12-11T09:02:17;46.17;;;12.33;;
20832;SDS011;56075;51.264;7.150;2022-12-11T09:04:48;63.60;;;15.50;;
20832;SDS011;56075;51.264;7.150;2022-12-11T09:07:20;47.17;;;14.73;;
20832;SDS011;56075;51.264;7.150;2022-12-11T09:09:55;55.33;;;14.87;;
20832;SDS011;56075;51.264;7.150;2022-12-11T09:12:26;49.77;;;14.10;;
20832;SDS011;56075;51.264;7.150;2022-12-11T09:14:58;51.73;;;14.07;;
20832;SDS011;56075;51.264;7.150;2022-12-11T09:17:29;54.40;;;15.13;;
20832;SDS011;56075;51.264;7.150;2022-12-11T09:20:01;59.37;;;15.13;;
20832;SDS011;56075;51.264;7.150;2022-12-11T09:22:33;42.97;;;13.80;;
20832;SDS011;56075;51.264;7.150;2022-12-11T09:25:04;49.43;;;13.70;;
20832;SDS011;56075;51.264;7.150;2022-12-11T09:27:36;52.90;;;13.97;;
20832;SDS011;56075;51.264;7.150;2022-12-11T09:33:13;47.87;;;12.60;;
20832;SDS011;56075;51.264;7.150;2022-12-11T09:35:45;56.93;;;14.50;;
20832;SDS011;56075;51.264;7.150;2022-12-11T09:38:16;46.27;;;13.67;;
20832;SDS011;56075;51.264;7.150;2022-12-11T09:40:48;53.60;;;14.07;;
20832;SDS011;56075;51.264;7.150;2022-12-11T09:46:12;46.37;;;12.93;;
20832;SDS011;56075;51.264;7.150;2022-12-11T09:48:45;55.60;;;14.77;;
20832;SDS011;56075;51.264;7.150;2022-12-11T09:51:19;53.73;;;15.40;;
20832;SDS011;56075;51.264;7.150;2022-12-11T09:53:51;50.90;;;14.07;;
20832;SDS011;56075;51.264;7.150;2022-12-11T09:56:26;46.37;;;13.43;;
20832;SDS011;56075;51.264;7.150;2022-12-11T10:17:33;45.90;;;12.60;;
20832;SDS011;56075;51.264;7.150;2022-12-11T10:20:19;46.40;;;14.00;;
20832;SDS011;56075;51.264;7.150;2022-12-11T10:22:52;49.80;;;13.70;;
20832;SDS011;56075;51.264;7.150;2022-12-11T10:25:26;51.43;;;14.17;;
20832;SDS011;56075;51.264;7.150;2022-12-11T10:27:59;38.47;;;11.63;;
20832;SDS011;56075;51.264;7.150;2022-12-11T10:30:33;48.33;;;13.23;;
20832;SDS011;56075;51.264;7.150;2022-12-11T10:35:42;45.40;;;13.57;;
20832;SDS011;56075;51.264;7.150;2022-12-11T10:38:16;43.90;;;13.40;;
20832;SDS011;56075;51.264;7.150;2022-12-11T10:41:11;46.80;;;13.77;;
20832;SDS011;56075;51.264;7.150;2022-12-11T10:43:45;46.43;;;13.90;;
20832;SDS011;56075;51.264;7.150;2022-12-11T10:46:24;53.17;;;14.10;;
20832;SDS011;56075;51.264;7.150;2022-12-11T10:48:57;42.77;;;13.07;;
20832;SDS011;56075;51.264;7.150;2022-12-11T10:54:05;47.57;;;12.90;;
20832;SDS011;56075;51.264;7.150;2022-12-11T10:56:38;41.37;;;12.10;;
20832;SDS011;56075;51.264;7.150;2022-12-11T10:59:13;51.83;;;13.10;;
20832;SDS011;56075;51.264;7.150;2022-12-11T11:01:46;39.80;;;12.23;;
20832;SDS011;56075;51.264;7.150;2022-12-11T11:04:19;46.70;;;13.20;;
20832;SDS011;56075;51.264;7.150;2022-12-11T11:07:41;49.80;;;12.37;;
20832;SDS011;56075;51.264;7.150;2022-12-11T11:09:47;44.97;;;13.50;;
20832;SDS011;56075;51.264;7.150;2022-12-11T11:12:22;41.33;;;12.97;;
20832;SDS011;56075;51.264;7.150;2022-12-11T11:15:03;45.63;;;13.70;;
20832;SDS011;56075;51.264;7.150;2022-12-11T11:17:41;45.93;;;13.40;;
20832;SDS011;56075;51.264;7.150;2022-12-11T11:20:14;48.50;;;11.77;;
20832;SDS011;56075;51.264;7.150;2022-12-11T11:22:48;54.05;;;17.13;;
20832;SDS011;56075;51.264;7.150;2022-12-11T11:25:21;42.77;;;13.37;;
20832;SDS011;56075;51.264;7.150;2022-12-11T11:27:54;47.43;;;13.33;;
20832;SDS011;56075;51.264;7.150;2022-12-11T11:30:26;48.03;;;13.77;;
20832;SDS011;56075;51.264;7.150;2022-12-11T11:33:01;39.30;;;12.33;;
20832;SDS011;56075;51.264;7.150;2022-12-11T11:35:34;39.73;;;11.50;;
20832;SDS011;56075;51.264;7.150;2022-12-11T11:40:41;37.77;;;11.10;;
20832;SDS011;56075;51.264;7.150;2022-12-11T11:50:53;47.38;;;14.65;;
20832;SDS011;56075;51.264;7.150;2022-12-11T11:53:32;44.50;;;12.80;;
20832;SDS011;56075;51.264;7.150;2022-12-11T11:58:47;43.30;;;12.70;;
20832;SDS011;56075;51.264;7.150;2022-12-11T12:01:21;48.60;;;13.80;;
20832;SDS011;56075;51.264;7.150;2022-12-11T12:03:52;43.93;;;12.33;;
20832;SDS011;56075;51.264;7.150;2022-12-11T12:06:48;40.13;;;12.30;;
20832;SDS011;56075;51.264;7.150;2022-12-11T12:14:38;43.13;;;13.13;;
20832;SDS011;56075;51.264;7.150;2022-12-11T12:17:30;36.77;;;11.83;;
20832;SDS011;56075;51.264;7.150;2022-12-11T12:20:12;38.13;;;11.13;;
20832;SDS011;56075;51.264;7.150;2022-12-11T12:25:32;36.93;;;11.23;;
20832;SDS011;56075;51.264;7.150;2022-12-11T12:28:26;41.40;;;11.70;;
20832;SDS011;56075;51.264;7.150;2022-12-11T12:36:10;32.50;;;10.53;;
20832;SDS011;56075;51.264;7.150;2022-12-11T12:39:00;31.67;;;9.60;;
20832;SDS011;56075;51.264;7.150;2022-12-11T12:41:35;31.50;;;9.50;;
20832;SDS011;56075;51.264;7.150;2022-12-11T12:44:18;33.93;;;10.47;;
20832;SDS011;56075;51.264;7.150;2022-12-11T12:46:52;36.30;;;11.63;;
20832;SDS011;56075;51.264;7.150;2022-12-11T12:49:29;32.83;;;11.27;;
20832;SDS011;56075;51.264;7.150;2022-12-11T12:52:03;30.50;;;10.60;;
20832;SDS011;56075;51.264;7.150;2022-12-11T12:54:35;34.20;;;9.97;;
20832;SDS011;56075;51.264;7.150;2022-12-11T12:57:07;31.23;;;9.87;;
20832;SDS011;56075;51.264;7.150;2022-12-11T12:59:38;33.27;;;10.80;;
20832;SDS011;56075;51.264;7.150;2022-12-11T13:02:13;30.47;;;9.87;;
20832;SDS011;56075;51.264;7.150;2022-12-11T13:04:54;32.17;;;10.10;;
20832;SDS011;56075;51.264;7.150;2022-12-11T13:07:28;32.00;;;9.90;;
20832;SDS011;56075;51.264;7.150;2022-12-11T13:10:07;28.90;;;9.10;;
20832;SDS011;56075;51.264;7.150;2022-12-11T13:12:52;27.40;;;9.03;;
20832;SDS011;56075;51.264;7.150;2022-12-11T13:17:56;28.77;;;9.10;;
20832;SDS011;56075;51.264;7.150;2022-12-11T13:20:29;35.87;;;10.50;;
20832;SDS011;56075;51.264;7.150;2022-12-11T13:26:02;28.67;;;9.00;;
20832;SDS011;56075;51.264;7.150;2022-12-11T13:33:49;36.77;;;10.87;;
20832;SDS011;56075;51.264;7.150;2022-12-11T13:36:24;33.97;;;10.30;;
20832;SDS011;56075;51.264;7.150;2022-12-11T13:39:04;32.30;;;10.63;;
20832;SDS011;56075;51.264;7.150;2022-12-11T13:41:46;24.97;;;9.00;;
20832;SDS011;56075;51.264;7.150;2022-12-11T13:44:26;23.07;;;8.90;;
20832;SDS011;56075;51.264;7.150;2022-12-11T13:46:58;29.17;;;9.80;;
20832;SDS011;56075;51.264;7.150;2022-12-11T13:49:34;20.07;;;6.83;;
20832;SDS011;56075;51.264;7.150;2022-12-11T13:52:06;26.13;;;7.67;;
20832;SDS011;56075;51.264;7.150;2022-12-11T13:54:45;22.03;;;7.23;;
20832;SDS011;56075;51.264;7.150;2022-12-11T13:57:18;25.33;;;7.37;;
20832;SDS011;56075;51.264;7.150;2022-12-11T13:59:51;22.53;;;8.13;;
20832;SDS011;56075;51.264;7.150;2022-12-11T14:05:04;32.80;;;10.70;;
20832;SDS011;56075;51.264;7.150;2022-12-11T14:07:41;27.80;;;9.20;;
20832;SDS011;56075;51.264;7.150;2022-12-11T14:15:40;31.73;;;10.67;;
20832;SDS011;56075;51.264;7.150;2022-12-11T14:18:26;36.17;;;11.10;;
20832;SDS011;56075;51.264;7.150;2022-12-11T14:21:03;32.03;;;10.37;;
20832;SDS011;56075;51.264;7.150;2022-12-11T14:23:41;31.93;;;10.07;;
20832;SDS011;56075;51.264;7.150;2022-12-11T14:26:34;32.97;;;11.07;;
20832;SDS011;56075;51.264;7.150;2022-12-11T14:29:25;36.03;;;10.40;;
20832;SDS011;56075;51.264;7.150;2022-12-11T14:32:01;42.10;;;11.70;;
20832;SDS011;56075;51.264;7.150;2022-12-11T14:34:35;39.73;;;11.63;;
20832;SDS011;56075;51.264;7.150;2022-12-11T14:37:07;38.20;;;12.30;;
20832;SDS011;56075;51.264;7.150;2022-12-11T14:39:40;36.57;;;11.77;;
20832;SDS011;56075;51.264;7.150;2022-12-11T14:42:18;35.20;;;11.60;;
20832;SDS011;56075;51.264;7.150;2022-12-11T14:45:02;40.17;;;11.47;;
20832;SDS011;56075;51.264;7.150;2022-12-11T14:47:37;42.63;;;12.53;;
20832;SDS011;56075;51.264;7.150;2022-12-11T14:50:16;39.63;;;12.83;;
20832;SDS011;56075;51.264;7.150;2022-12-11T14:52:52;43.33;;;12.90;;
20832;SDS011;56075;51.264;7.150;2022-12-11T14:55:31;47.13;;;13.30;;
20832;SDS011;56075;51.264;7.150;2022-12-11T14:58:05;39.07;;;12.23;;
20832;SDS011;56075;51.264;7.150;2022-12-11T15:00:54;39.40;;;12.00;;
20832;SDS011;56075;51.264;7.150;2022-12-11T15:03:30;35.17;;;11.60;;
20832;SDS011;56075;51.264;7.150;2022-12-11T15:06:20;35.00;;;11.03;;
20832;SDS011;56075;51.264;7.150;2022-12-11T15:08:53;31.17;;;9.77;;
20832;SDS011;56075;51.264;7.150;2022-12-11T15:11:29;31.80;;;10.37;;
20832;SDS011;56075;51.264;7.150;2022-12-11T15:14:02;35.60;;;10.50;;
20832;SDS011;56075;51.264;7.150;2022-12-11T15:16:36;30.17;;;10.40;;
20832;SDS011;56075;51.264;7.150;2022-12-11T15:19:15;30.23;;;9.60;;
20832;SDS011;56075;51.264;7.150;2022-12-11T15:21:48;36.07;;;9.53;;
20832;SDS011;56075;51.264;7.150;2022-12-11T15:24:33;32.63;;;10.30;;
20832;SDS011;56075;51.264;7.150;2022-12-11T15:30:22;39.00;;;13.27;;
20832;SDS011;56075;51.264;7.150;2022-12-11T15:33:04;27.07;;;9.33;;
20832;SDS011;56075;51.264;7.150;2022-12-11T15:35:53;35.57;;;10.87;;
20832;SDS011;56075;51.264;7.150;2022-12-11T15:38:26;32.47;;;10.13;;
20832;SDS011;56075;51.264;7.150;2022-12-11T15:40:59;28.30;;;9.23;;
20832;SDS011;56075;51.264;7.150;2022-12-11T15:43:33;32.43;;;9.47;;
20832;SDS011;56075;51.264;7.150;2022-12-11T15:46:08;29.80;;;9.27;;
20832;SDS011;56075;51.264;7.150;2022-12-11T15:48:40;31.50;;;10.00;;
20832;SDS011;56075;51.264;7.150;2022-12-11T15:51:11;27.77;;;9.27;;
20832;SDS011;56075;51.264;7.150;2022-12-11T15:53:43;31.17;;;9.10;;
20832;SDS011;56075;51.264;7.150;2022-12-11T15:56:15;31.17;;;9.63;;
20832;SDS011;56075;51.264;7.150;2022-12-11T15:58:46;27.03;;;8.73;;
20832;SDS011;56075;51.264;7.150;2022-12-11T16:01:18;33.13;;;10.07;;
20832;SDS011;56075;51.264;7.150;2022-12-11T16:03:50;25.77;;;8.17;;
20832;SDS011;56075;51.264;7.150;2022-12-11T16:06:24;31.77;;;11.07;;
20832;SDS011;56075;51.264;7.150;2022-12-11T16:08:56;31.37;;;10.50;;
20832;SDS011;56075;51.264;7.150;2022-12-11T16:11:28;33.43;;;10.60;;
20832;SDS011;56075;51.264;7.150;2022-12-11T16:13:59;30.60;;;9.93;;
20832;SDS011;56075;51.264;7.150;2022-12-11T16:16:33;32.00;;;10.77;;
20832;SDS011;56075;51.264;7.150;2022-12-11T16:19:05;29.10;;;9.57;;
20832;SDS011;56075;51.264;7.150;2022-12-11T16:21:39;31.20;;;9.60;;
20832;SDS011;56075;51.264;7.150;2022-12-11T16:24:14;30.20;;;9.67;;
20832;SDS011;56075;51.264;7.150;2022-12-11T16:26:46;28.50;;;10.20;;